sensor_id;sensor_type;location;lat;lon;timestamp;P1;durP1;ratioP1;P2;durP2;ratioP2
74788;SDS011;63313;48.258;12.518;2023-05-10T00:03:51;9.670000000000002;;;5.28;;
74788;SDS011;63313;48.258;12.518;2023-05-10T00:09:18;7.0600000000000005;;;4.66;;
74788;SDS011;63313;48.258;12.518;2023-05-10T00:14:45;6.340000000000001;;;5.540000000000001;;
74788;SDS011;63313;48.258;12.518;2023-05-10T00:20:12;6.2;;;5.08;;
74788;SDS011;63313;48.258;12.518;2023-05-10T00:25:39;9.61;;;5.53;;
74788;SDS011;63313;48.258;12.518;2023-05-10T00:31:56;8.690000000000001;;;5.85;;
74788;SDS011;63313;48.258;12.518;2023-05-10T00:37:24;6.37;;;5.3;;
74788;SDS011;63313;48.258;12.518;2023-05-10T00:42:51;8.350000000000001;;;5.13;;
74788;SDS011;63313;48.258;12.518;2023-05-10T00:48:18;6.5;;;5.2;;
74788;SDS011;63313;48.258;12.518;2023-05-10T00:53:45;6.15;;;4.529999999999999;;
74788;SDS011;63313;48.258;12.518;2023-05-10T00:59:13;4.279999999999999;;;3.65;;
74788;SDS011;63313;48.258;12.518;2023-05-10T01:04:40;3.69;;;3.2599999999999993;;
74788;SDS011;63313;48.258;12.518;2023-05-10T01:10:07;3.13;;;1.8299999999999996;;
74788;SDS011;63313;48.258;12.518;2023-05-10T01:15:35;1.15;;;1.1;;
74788;SDS011;63313;48.258;12.518;2023-05-10T01:21:06;1.0699999999999998;;;1.0699999999999998;;
74788;SDS011;63313;48.258;12.518;2023-05-10T01:26:39;2.79;;;1.21;;
74788;SDS011;63313;48.258;12.518;2023-05-10T01:32:15;3.37;;;1.41;;
74788;SDS011;63313;48.258;12.518;2023-05-10T01:37:44;1.0699999999999998;;;1.06;;
74788;SDS011;63313;48.258;12.518;2023-05-10T01:43:14;1.14;;;1.14;;
74788;SDS011;63313;48.258;12.518;2023-05-10T01:48:46;1.52;;;1.45;;
74788;SDS011;63313;48.258;12.518;2023-05-10T01:54:14;1.6199999999999999;;;1.55;;
74788;SDS011;63313;48.258;12.518;2023-05-10T01:59:43;1.3299999999999998;;;1.2200000000000002;;
74788;SDS011;63313;48.258;12.518;2023-05-10T02:05:12;1.27;;;1.27;;
74788;SDS011;63313;48.258;12.518;2023-05-10T02:10:39;2.1100000000000003;;;1.6300000000000001;;
74788;SDS011;63313;48.258;12.518;2023-05-10T02:16:07;1.7200000000000002;;;1.65;;
74788;SDS011;63313;48.258;12.518;2023-05-10T02:21:34;1.7;;;1.6;;
74788;SDS011;63313;48.258;12.518;2023-05-10T02:27:02;1.3299999999999998;;;1.27;;
74788;SDS011;63313;48.258;12.518;2023-05-10T02:32:30;1.3200000000000003;;;1.3200000000000003;;
74788;SDS011;63313;48.258;12.518;2023-05-10T02:37:57;2.79;;;1.35;;
74788;SDS011;63313;48.258;12.518;2023-05-10T02:43:25;1.7399999999999998;;;0.9800000000000001;;
74788;SDS011;63313;48.258;12.518;2023-05-10T02:48:52;1.56;;;1.46;;
74788;SDS011;63313;48.258;12.518;2023-05-10T02:54:20;2.18;;;1.0799999999999996;;
74788;SDS011;63313;48.258;12.518;2023-05-10T02:59:50;1.4200000000000002;;;1.32;;
74788;SDS011;63313;48.258;12.518;2023-05-10T03:05:17;1.3800000000000001;;;1.28;;
74788;SDS011;63313;48.258;12.518;2023-05-10T03:10:47;1.0999999999999999;;;1.0999999999999999;;
74788;SDS011;63313;48.258;12.518;2023-05-10T03:16:19;1.67;;;1.51;;
74788;SDS011;63313;48.258;12.518;2023-05-10T03:21:50;1.3400000000000003;;;1.2900000000000003;;
74788;SDS011;63313;48.258;12.518;2023-05-10T03:27:18;1.3900000000000001;;;1.3200000000000003;;
74788;SDS011;63313;48.258;12.518;2023-05-10T03:32:45;2.1999999999999997;;;1.3800000000000001;;
74788;SDS011;63313;48.258;12.518;2023-05-10T03:38:12;1.3199999999999998;;;1.23;;
74788;SDS011;63313;48.258;12.518;2023-05-10T03:43:39;1.5;;;1.4300000000000002;;
74788;SDS011;63313;48.258;12.518;2023-05-10T03:49:06;1.31;;;1.3000000000000003;;
74788;SDS011;63313;48.258;12.518;2023-05-10T03:54:33;1.28;;;1.23;;
74788;SDS011;63313;48.258;12.518;2023-05-10T04:00:00;3.2400000000000007;;;1.56;;
74788;SDS011;63313;48.258;12.518;2023-05-10T04:05:28;1.92;;;1.59;;
74788;SDS011;63313;48.258;12.518;2023-05-10T04:10:55;1.23;;;1.23;;
74788;SDS011;63313;48.258;12.518;2023-05-10T04:16:31;1.72;;;1.32;;
74788;SDS011;63313;48.258;12.518;2023-05-10T04:21:58;1.77;;;1.2500000000000002;;
74788;SDS011;63313;48.258;12.518;2023-05-10T04:27:26;1.6;;;1.46;;
74788;SDS011;63313;48.258;12.518;2023-05-10T04:32:58;1.9000000000000004;;;1.5599999999999998;;
74788;SDS011;63313;48.258;12.518;2023-05-10T04:38:28;2.7600000000000002;;;1.5;;
74788;SDS011;63313;48.258;12.518;2023-05-10T04:45:38;2.3899999999999997;;;1.9700000000000002;;
74788;SDS011;63313;48.258;12.518;2023-05-10T04:51:08;2.1;;;1.9;;
74788;SDS011;63313;48.258;12.518;2023-05-10T04:56:36;2.66;;;2.42;;
74788;SDS011;63313;48.258;12.518;2023-05-10T05:03:09;1.73;;;1.6300000000000001;;
74788;SDS011;63313;48.258;12.518;2023-05-10T05:08:39;1.92;;;1.72;;
74788;SDS011;63313;48.258;12.518;2023-05-10T05:34:51;2.31;;;1.4100000000000001;;
74788;SDS011;63313;48.258;12.518;2023-05-10T05:40:18;1.41;;;1.32;;
74788;SDS011;63313;48.258;12.518;2023-05-10T05:45:52;1.42;;;1.41;;
74788;SDS011;63313;48.258;12.518;2023-05-10T05:54:49;1.46;;;1.3900000000000001;;
74788;SDS011;63313;48.258;12.518;2023-05-10T06:00:16;1.24;;;1.21;;
74788;SDS011;63313;48.258;12.518;2023-05-10T06:05:44;1.9599999999999997;;;1.4;;
74788;SDS011;63313;48.258;12.518;2023-05-10T06:11:11;1.1300000000000001;;;1.0799999999999998;;
74788;SDS011;63313;48.258;12.518;2023-05-10T06:16:38;1.57;;;1.3199999999999998;;
74788;SDS011;63313;48.258;12.518;2023-05-10T06:22:05;1.52;;;1.23;;
74788;SDS011;63313;48.258;12.518;2023-05-10T06:27:32;1.65;;;1.46;;
74788;SDS011;63313;48.258;12.518;2023-05-10T06:32:59;2.46;;;1.2100000000000002;;
74788;SDS011;63313;48.258;12.518;2023-05-10T06:38:26;1.17;;;1.1;;
74788;SDS011;63313;48.258;12.518;2023-05-10T06:43:53;2.21;;;1.05;;
74788;SDS011;63313;48.258;12.518;2023-05-10T06:49:20;1.49;;;0.9199999999999999;;
74788;SDS011;63313;48.258;12.518;2023-05-10T06:54:47;0.9199999999999999;;;0.86;;
74788;SDS011;63313;48.258;12.518;2023-05-10T07:00:15;2.15;;;0.8200000000000001;;
74788;SDS011;63313;48.258;12.518;2023-05-10T07:05:42;2.0;;;0.7699999999999999;;
74788;SDS011;63313;48.258;12.518;2023-05-10T07:11:09;0.97;;;0.6799999999999999;;
74788;SDS011;63313;48.258;12.518;2023-05-10T07:16:36;0.95;;;0.85;;
74788;SDS011;63313;48.258;12.518;2023-05-10T07:22:03;0.7899999999999998;;;0.6599999999999999;;
74788;SDS011;63313;48.258;12.518;2023-05-10T07:27:30;1.3000000000000003;;;0.76;;
74788;SDS011;63313;48.258;12.518;2023-05-10T07:32:57;0.8;;;0.79;;
74788;SDS011;63313;48.258;12.518;2023-05-10T07:38:24;1.1400000000000001;;;1.0699999999999998;;
74788;SDS011;63313;48.258;12.518;2023-05-10T07:43:51;1.7399999999999998;;;0.78;;
74788;SDS011;63313;48.258;12.518;2023-05-10T07:49:18;1.0999999999999999;;;1.0999999999999999;;
74788;SDS011;63313;48.258;12.518;2023-05-10T07:54:45;1.28;;;1.23;;
74788;SDS011;63313;48.258;12.518;2023-05-10T08:00:13;2.1;;;1.45;;
74788;SDS011;63313;48.258;12.518;2023-05-10T08:05:43;2.41;;;2.2399999999999993;;
74788;SDS011;63313;48.258;12.518;2023-05-10T08:11:10;2.5;;;2.3999999999999995;;
74788;SDS011;63313;48.258;12.518;2023-05-10T08:16:37;3.3099999999999996;;;2.1799999999999997;;
74788;SDS011;63313;48.258;12.518;2023-05-10T08:22:04;2.6100000000000003;;;2.44;;
74788;SDS011;63313;48.258;12.518;2023-05-10T08:27:31;2.2399999999999998;;;2.12;;
74788;SDS011;63313;48.258;12.518;2023-05-10T08:32:58;2.0800000000000005;;;1.9899999999999998;;
74788;SDS011;63313;48.258;12.518;2023-05-10T08:38:25;2.2299999999999995;;;1.94;;
74788;SDS011;63313;48.258;12.518;2023-05-10T08:43:53;1.7600000000000002;;;1.6799999999999997;;
74788;SDS011;63313;48.258;12.518;2023-05-10T08:49:20;1.9800000000000004;;;1.72;;
74788;SDS011;63313;48.258;12.518;2023-05-10T08:54:48;2.45;;;2.3499999999999996;;
74788;SDS011;63313;48.258;12.518;2023-05-10T09:00:15;2.11;;;1.94;;
74788;SDS011;63313;48.258;12.518;2023-05-10T09:05:43;2.8600000000000003;;;2.6399999999999997;;
74788;SDS011;63313;48.258;12.518;2023-05-10T09:11:11;3.0500000000000003;;;2.37;;
74788;SDS011;63313;48.258;12.518;2023-05-10T09:16:39;2.3600000000000003;;;2.1999999999999997;;
74788;SDS011;63313;48.258;12.518;2023-05-10T09:22:06;3.5100000000000002;;;2.7;;
74788;SDS011;63313;48.258;12.518;2023-05-10T09:27:33;2.3899999999999997;;;2.2199999999999998;;
74788;SDS011;63313;48.258;12.518;2023-05-10T09:33:01;2.6;;;2.1;;
74788;SDS011;63313;48.258;12.518;2023-05-10T09:38:28;2.6900000000000004;;;2.36;;
74788;SDS011;63313;48.258;12.518;2023-05-10T09:44:11;2.7;;;2.4;;
74788;SDS011;63313;48.258;12.518;2023-05-10T09:49:38;1.8;;;1.7599999999999998;;
74788;SDS011;63313;48.258;12.518;2023-05-10T09:55:05;1.8499999999999996;;;1.78;;
74788;SDS011;63313;48.258;12.518;2023-05-10T10:00:34;1.5699999999999998;;;1.41;;
74788;SDS011;63313;48.258;12.518;2023-05-10T10:06:01;2.54;;;1.48;;
74788;SDS011;63313;48.258;12.518;2023-05-10T10:11:29;1.35;;;1.35;;
74788;SDS011;63313;48.258;12.518;2023-05-10T10:16:56;1.5;;;1.49;;
74788;SDS011;63313;48.258;12.518;2023-05-10T10:22:23;1.6;;;1.5199999999999998;;
74788;SDS011;63313;48.258;12.518;2023-05-10T10:27:56;1.15;;;1.15;;
74788;SDS011;63313;48.258;12.518;2023-05-10T10:33:30;1.27;;;1.27;;
74788;SDS011;63313;48.258;12.518;2023-05-10T10:39:01;1.14;;;1.1299999999999997;;
74788;SDS011;63313;48.258;12.518;2023-05-10T10:44:36;1.9;;;1.23;;
74788;SDS011;63313;48.258;12.518;2023-05-10T10:50:05;4.18;;;1.23;;
74788;SDS011;63313;48.258;12.518;2023-05-10T10:55:32;1.23;;;1.2200000000000002;;
74788;SDS011;63313;48.258;12.518;2023-05-10T11:01:15;1.49;;;1.44;;
74788;SDS011;63313;48.258;12.518;2023-05-10T11:06:42;2.23;;;1.65;;
74788;SDS011;63313;48.258;12.518;2023-05-10T11:12:09;1.7;;;1.6600000000000001;;
74788;SDS011;63313;48.258;12.518;2023-05-10T11:17:37;1.5099999999999998;;;1.43;;
74788;SDS011;63313;48.258;12.518;2023-05-10T11:23:11;1.89;;;1.6600000000000001;;
74788;SDS011;63313;48.258;12.518;2023-05-10T11:28:40;5.18;;;2.6799999999999997;;
74788;SDS011;63313;48.258;12.518;2023-05-10T11:34:08;5.279999999999999;;;3.3200000000000003;;
74788;SDS011;63313;48.258;12.518;2023-05-10T11:39:35;2.55;;;2.2399999999999998;;
74788;SDS011;63313;48.258;12.518;2023-05-10T11:45:02;2.13;;;1.8;;
74788;SDS011;63313;48.258;12.518;2023-05-10T11:50:29;2.14;;;1.75;;
74788;SDS011;63313;48.258;12.518;2023-05-10T11:56:02;2.11;;;1.3900000000000001;;
74788;SDS011;63313;48.258;12.518;2023-05-10T12:01:29;1.03;;;1.03;;
74788;SDS011;63313;48.258;12.518;2023-05-10T12:06:57;0.7699999999999999;;;0.7699999999999999;;
74788;SDS011;63313;48.258;12.518;2023-05-10T12:12:24;1.3299999999999998;;;0.95;;
74788;SDS011;63313;48.258;12.518;2023-05-10T12:17:51;1.5100000000000002;;;1.1199999999999999;;
74788;SDS011;63313;48.258;12.518;2023-05-10T12:23:18;1.0299999999999998;;;1.01;;
74788;SDS011;63313;48.258;12.518;2023-05-10T12:28:46;1.2399999999999998;;;1.1199999999999999;;
74788;SDS011;63313;48.258;12.518;2023-05-10T12:34:22;1.19;;;1.19;;
74788;SDS011;63313;48.258;12.518;2023-05-10T12:39:49;2.37;;;1.5;;
74788;SDS011;63313;48.258;12.518;2023-05-10T12:45:17;1.19;;;1.0699999999999998;;
74788;SDS011;63313;48.258;12.518;2023-05-10T12:50:45;1.19;;;1.19;;
74788;SDS011;63313;48.258;12.518;2023-05-10T12:56:12;2.09;;;1.65;;
74788;SDS011;63313;48.258;12.518;2023-05-10T13:01:39;2.62;;;1.34;;
74788;SDS011;63313;48.258;12.518;2023-05-10T13:07:06;1.83;;;1.72;;
74788;SDS011;63313;48.258;12.518;2023-05-10T13:12:33;4.43;;;1.8199999999999998;;
74788;SDS011;63313;48.258;12.518;2023-05-10T13:18:00;2.0100000000000002;;;1.7700000000000002;;
74788;SDS011;63313;48.258;12.518;2023-05-10T13:23:27;1.7600000000000002;;;1.7600000000000002;;
74788;SDS011;63313;48.258;12.518;2023-05-10T13:28:54;4.299999999999999;;;2.26;;
74788;SDS011;63313;48.258;12.518;2023-05-10T13:34:21;2.3;;;2.19;;
74788;SDS011;63313;48.258;12.518;2023-05-10T13:39:48;5.85;;;2.8499999999999996;;
74788;SDS011;63313;48.258;12.518;2023-05-10T13:45:15;2.44;;;2.34;;
74788;SDS011;63313;48.258;12.518;2023-05-10T13:50:42;2.1399999999999997;;;1.89;;
74788;SDS011;63313;48.258;12.518;2023-05-10T13:56:10;2.18;;;1.9700000000000002;;
74788;SDS011;63313;48.258;12.518;2023-05-10T14:01:37;2.9099999999999997;;;1.7399999999999998;;
74788;SDS011;63313;48.258;12.518;2023-05-10T14:07:04;2.7199999999999998;;;1.33;;
74788;SDS011;63313;48.258;12.518;2023-05-10T14:12:31;1.8199999999999998;;;1.39;;
74788;SDS011;63313;48.258;12.518;2023-05-10T14:17:58;1.78;;;1.6299999999999997;;
74788;SDS011;63313;48.258;12.518;2023-05-10T14:23:25;1.77;;;1.2400000000000002;;
74788;SDS011;63313;48.258;12.518;2023-05-10T14:28:52;1.31;;;1.2100000000000002;;
74788;SDS011;63313;48.258;12.518;2023-05-10T14:34:19;1.56;;;1.3699999999999999;;
74788;SDS011;63313;48.258;12.518;2023-05-10T14:39:46;2.1700000000000004;;;1.4100000000000001;;
74788;SDS011;63313;48.258;12.518;2023-05-10T14:45:13;1.7100000000000002;;;1.5899999999999999;;
74788;SDS011;63313;48.258;12.518;2023-05-10T14:50:40;2.12;;;1.4200000000000002;;
74788;SDS011;63313;48.258;12.518;2023-05-10T14:56:07;3.38;;;1.15;;
74788;SDS011;63313;48.258;12.518;2023-05-10T15:01:35;1.8399999999999999;;;1.32;;
74788;SDS011;63313;48.258;12.518;2023-05-10T15:07:02;3.7;;;1.78;;
74788;SDS011;63313;48.258;12.518;2023-05-10T15:14:39;2.67;;;1.67;;
74788;SDS011;63313;48.258;12.518;2023-05-10T15:20:36;2.6;;;1.8099999999999998;;
74788;SDS011;63313;48.258;12.518;2023-05-10T15:49:36;2.6;;;1.89;;
74788;SDS011;63313;48.258;12.518;2023-05-10T15:55:03;4.12;;;1.8999999999999997;;
74788;SDS011;63313;48.258;12.518;2023-05-10T16:00:30;3.8600000000000003;;;1.7;;
74788;SDS011;63313;48.258;12.518;2023-05-10T16:05:57;3.7600000000000002;;;1.6600000000000001;;
74788;SDS011;63313;48.258;12.518;2023-05-10T16:11:24;3.0899999999999994;;;1.2900000000000003;;
74788;SDS011;63313;48.258;12.518;2023-05-10T16:16:51;2.96;;;1.22;;
74788;SDS011;63313;48.258;12.518;2023-05-10T16:22:19;2.6399999999999997;;;1.3900000000000001;;
74788;SDS011;63313;48.258;12.518;2023-05-10T16:27:46;2.45;;;1.55;;
74788;SDS011;63313;48.258;12.518;2023-05-10T16:33:13;1.57;;;1.45;;
74788;SDS011;63313;48.258;12.518;2023-05-10T16:38:40;2.33;;;1.5899999999999999;;
74788;SDS011;63313;48.258;12.518;2023-05-10T16:44:07;2.9099999999999997;;;1.65;;
74788;SDS011;63313;48.258;12.518;2023-05-10T16:49:34;4.65;;;1.5799999999999998;;
74788;SDS011;63313;48.258;12.518;2023-05-10T16:55:01;1.7599999999999998;;;1.6600000000000001;;
74788;SDS011;63313;48.258;12.518;2023-05-10T17:00:29;2.19;;;1.9700000000000002;;
74788;SDS011;63313;48.258;12.518;2023-05-10T17:05:56;4.16;;;2.0;;
74788;SDS011;63313;48.258;12.518;2023-05-10T17:11:23;4.85;;;2.0300000000000002;;
74788;SDS011;63313;48.258;12.518;2023-05-10T17:16:50;4.08;;;2.57;;
74788;SDS011;63313;48.258;12.518;2023-05-10T17:22:17;2.24;;;2.05;;
74788;SDS011;63313;48.258;12.518;2023-05-10T17:27:44;3.3;;;1.5699999999999998;;
74788;SDS011;63313;48.258;12.518;2023-05-10T17:33:11;1.8400000000000003;;;1.5699999999999998;;
74788;SDS011;63313;48.258;12.518;2023-05-10T17:38:38;1.52;;;1.44;;
74788;SDS011;63313;48.258;12.518;2023-05-10T17:44:05;2.5500000000000003;;;1.7399999999999998;;
74788;SDS011;63313;48.258;12.518;2023-05-10T17:49:32;2.46;;;2.2600000000000002;;
74788;SDS011;63313;48.258;12.518;2023-05-10T17:54:59;1.7399999999999998;;;1.6600000000000001;;
74788;SDS011;63313;48.258;12.518;2023-05-10T18:00:26;2.2600000000000002;;;2.11;;
74788;SDS011;63313;48.258;12.518;2023-05-10T18:05:53;2.0800000000000005;;;1.9599999999999997;;
74788;SDS011;63313;48.258;12.518;2023-05-10T18:11:20;3.19;;;2.2199999999999998;;
74788;SDS011;63313;48.258;12.518;2023-05-10T18:16:48;3.87;;;1.83;;
74788;SDS011;63313;48.258;12.518;2023-05-10T18:33:29;4.49;;;1.7100000000000002;;
74788;SDS011;63313;48.258;12.518;2023-05-10T18:38:56;9.82;;;2.3899999999999997;;
74788;SDS011;63313;48.258;12.518;2023-05-10T18:44:29;3.46;;;1.7899999999999998;;
74788;SDS011;63313;48.258;12.518;2023-05-10T18:51:31;2.14;;;1.75;;
74788;SDS011;63313;48.258;12.518;2023-05-10T18:56:58;1.9099999999999997;;;1.73;;
74788;SDS011;63313;48.258;12.518;2023-05-10T19:02:30;1.5999999999999999;;;1.47;;
74788;SDS011;63313;48.258;12.518;2023-05-10T19:08:03;1.95;;;1.7099999999999997;;
